createdAt,value
2018-04-06T00:00:01.518Z,788.3
2018-04-06T00:00:05.669Z,788.24
2018-04-06T00:00:09.551Z,788.24
2018-04-06T00:00:13.546Z,788.24
2018-04-06T00:00:17.426Z,788.19
2018-04-06T00:00:21.415Z,788.22
2018-04-06T00:00:25.512Z,788.18
2018-04-06T00:00:29.608Z,788.25
2018-04-06T00:00:33.810Z,788.18
2018-04-06T00:00:37.705Z,788.21
2018-04-06T00:00:41.810Z,788.2
2018-04-06T00:00:45.905Z,788.18
2018-04-06T00:00:50.135Z,788.17
2018-04-06T00:00:54.231Z,788.15
2018-04-06T00:00:58.449Z,788.15
2018-04-06T00:01:02.694Z,788.14
2018-04-06T00:01:06.580Z,788.13
2018-04-06T00:01:10.573Z,788.15
2018-04-06T00:01:14.884Z,788.17
2018-04-06T00:01:19.083Z,788.15
2018-04-06T00:01:23.071Z,788.16
2018-04-06T00:01:27.058Z,788.17
2018-04-06T00:01:31.161Z,788.12
2018-04-06T00:01:35.373Z,788.09
2018-04-06T00:01:39.252Z,788.1
2018-04-06T00:01:43.354Z,788.11
2018-04-06T00:01:47.567Z,788.1
2018-04-06T00:01:51.783Z,788.11
2018-04-06T00:01:55.986Z,788.12
2018-04-06T00:01:59.761Z,788.08
2018-04-06T00:02:04.129Z,788.04
2018-04-06T00:02:08.351Z,788.06
2018-04-06T00:02:12.670Z,788.07
2018-04-06T00:02:16.891Z,788.07
2018-04-06T00:02:20.887Z,788.04
2018-04-06T00:02:25.206Z,788.03
2018-04-06T00:02:29.306Z,788.03
2018-04-06T00:02:33.507Z,788.01
2018-04-06T00:02:37.724Z,788.01
2018-04-06T00:02:41.718Z,788
2018-04-06T00:02:45.921Z,788
2018-04-06T00:02:50.255Z,787.98
2018-04-06T00:02:54.138Z,787.97
2018-04-06T00:02:58.383Z,787.96
2018-04-06T00:03:02.482Z,787.97
2018-04-06T00:03:06.586Z,787.95
2018-04-06T00:03:10.471Z,787.93
2018-04-06T00:03:14.787Z,787.89
2018-04-06T00:03:18.882Z,787.92
2018-04-06T00:03:22.985Z,787.89
2018-04-06T00:03:26.974Z,787.91
2018-04-06T00:03:31.074Z,787.9
2018-04-06T00:03:35.385Z,787.92
2018-04-06T00:03:39.591Z,787.92
2018-04-06T00:03:43.800Z,787.89
2018-04-06T00:03:47.786Z,787.88
2018-04-06T00:03:51.886Z,787.85
2018-04-06T00:03:56.236Z,787.85
2018-04-06T00:04:00.331Z,787.82
2018-04-06T00:04:04.729Z,787.85
2018-04-06T00:04:08.949Z,787.83
2018-04-06T00:04:13.160Z,787.84
2018-04-06T00:04:17.384Z,787.82
2018-04-06T00:04:21.483Z,787.82
2018-04-06T00:04:25.694Z,787.83
2018-04-06T00:04:29.687Z,787.82
2018-04-06T00:04:33.640Z,787.78
2018-04-06T00:04:38.018Z,787.78
2018-04-06T00:04:42.496Z,787.76
2018-04-06T00:04:46.807Z,787.75
2018-04-06T00:04:51.012Z,787.73
2018-04-06T00:04:55.324Z,787.75
2018-04-06T00:04:59.589Z,787.71
2018-04-06T00:05:03.880Z,787.7
2018-04-06T00:05:07.872Z,787.69
2018-04-06T00:05:11.871Z,787.67
2018-04-06T00:05:15.859Z,787.64
2018-04-06T00:05:20.067Z,787.68
2018-04-06T00:05:24.268Z,787.64
2018-04-06T00:05:28.368Z,787.64
2018-04-06T00:05:32.578Z,787.59
2018-04-06T00:05:36.677Z,787.59
2018-04-06T00:05:40.674Z,787.62
2018-04-06T00:05:44.775Z,787.58
2018-04-06T00:05:48.984Z,787.56
2018-04-06T00:05:53.087Z,787.56
2018-04-06T00:05:57.178Z,787.53
2018-04-06T00:06:01.380Z,787.59
2018-04-06T00:06:05.464Z,787.55
2018-04-06T00:06:09.572Z,787.59
2018-04-06T00:06:13.784Z,787.54
2018-04-06T00:06:18.097Z,787.55
2018-04-06T00:06:22.192Z,787.54
2018-04-06T00:06:26.184Z,787.54
2018-04-06T00:06:30.277Z,787.5
2018-04-06T00:06:34.384Z,787.52
2018-04-06T00:06:38.382Z,787.45
2018-04-06T00:06:42.372Z,787.43
2018-04-06T00:06:46.578Z,787.46
2018-04-06T00:06:50.672Z,787.44
2018-04-06T00:06:54.889Z,787.42
2018-04-06T00:06:59.098Z,787.44
2018-04-06T00:07:03.240Z,787.48
2018-04-06T00:07:07.236Z,787.46
2018-04-06T00:07:11.226Z,787.43
2018-04-06T00:07:15.439Z,787.46
2018-04-06T00:07:19.322Z,787.41
2018-04-06T00:07:23.420Z,787.43
2018-04-06T00:07:27.731Z,787.42
2018-04-06T00:07:31.826Z,787.46
2018-04-06T00:07:36.029Z,787.42
2018-04-06T00:07:40.349Z,787.42
2018-04-06T00:07:44.665Z,787.41
2018-04-06T00:07:48.870Z,787.37
2018-04-06T00:07:52.753Z,787.39
2018-04-06T00:07:56.955Z,787.38
2018-04-06T00:08:01.268Z,787.38
2018-04-06T00:08:05.450Z,787.38
2018-04-06T00:08:09.561Z,787.32
2018-04-06T00:08:13.552Z,787.28
2018-04-06T00:08:17.864Z,787.33
2018-04-06T00:08:21.970Z,787.31
2018-04-06T00:08:25.959Z,787.31
2018-04-06T00:08:30.059Z,787.34
2018-04-06T00:08:33.937Z,787.31
2018-04-06T00:08:38.143Z,787.35
2018-04-06T00:08:42.354Z,787.3
2018-04-06T00:08:46.558Z,787.31
2018-04-06T00:08:50.878Z,787.3
2018-04-06T00:08:54.980Z,787.29
2018-04-06T00:08:58.969Z,787.27
2018-04-06T00:09:03.164Z,787.26
2018-04-06T00:09:07.273Z,787.26
2018-04-06T00:09:11.588Z,787.28
2018-04-06T00:09:15.799Z,787.24
2018-04-06T00:09:19.791Z,787.27
2018-04-06T00:09:23.889Z,787.25
2018-04-06T00:09:27.879Z,787.25
2018-04-06T00:09:32.081Z,787.24
2018-04-06T00:09:36.181Z,787.22
2018-04-06T00:09:40.322Z,787.22
2018-04-06T00:09:44.529Z,787.24
2018-04-06T00:09:48.634Z,787.22
2018-04-06T00:09:52.731Z,787.22
2018-04-06T00:09:56.831Z,787.23
2018-04-06T00:10:01.040Z,787.2
2018-04-06T00:10:05.034Z,787.2
2018-04-06T00:10:09.129Z,787.16
2018-04-06T00:10:13.230Z,787.18
2018-04-06T00:10:17.549Z,787.17
2018-04-06T00:10:21.759Z,787.16
2018-04-06T00:10:25.857Z,787.2
2018-04-06T00:10:29.955Z,787.16
2018-04-06T00:10:34.174Z,787.09
2018-04-06T00:10:38.277Z,787.08
2018-04-06T00:10:42.484Z,787.09
2018-04-06T00:10:46.585Z,787.09
2018-04-06T00:10:50.592Z,787.12
2018-04-06T00:10:54.806Z,787.09
2018-04-06T00:10:58.909Z,787.13
2018-04-06T00:11:03.378Z,787.08
2018-04-06T00:11:07.266Z,787.11
2018-04-06T00:11:11.373Z,787.1
2018-04-06T00:11:15.579Z,787.08
2018-04-06T00:11:19.570Z,787.1
2018-04-06T00:11:23.668Z,787.09
2018-04-06T00:11:27.875Z,787.07
2018-04-06T00:11:32.078Z,787.07
2018-04-06T00:11:35.861Z,787.06
2018-04-06T00:11:39.964Z,787.05
2018-04-06T00:11:44.171Z,787.05
2018-04-06T00:11:48.159Z,787.06
2018-04-06T00:11:52.407Z,787.04
2018-04-06T00:11:56.502Z,787.01
2018-04-06T00:12:00.493Z,787.02
2018-04-06T00:12:04.803Z,786.99
2018-04-06T00:12:08.907Z,787
2018-04-06T00:12:13.228Z,786.99
2018-04-06T00:12:17.327Z,787
2018-04-06T00:12:21.429Z,786.97
2018-04-06T00:12:25.314Z,786.98
2018-04-06T00:12:29.523Z,786.93
2018-04-06T00:12:33.728Z,786.95
2018-04-06T00:12:37.940Z,787.01
2018-04-06T00:12:42.142Z,786.98
2018-04-06T00:12:46.132Z,787
2018-04-06T00:12:50.119Z,786.97
2018-04-06T00:12:54.216Z,786.98
2018-04-06T00:12:58.225Z,786.96
2018-04-06T00:13:02.437Z,786.93
2018-04-06T00:13:06.537Z,786.95
2018-04-06T00:13:10.640Z,786.93
2018-04-06T00:13:14.524Z,786.91
2018-04-06T00:13:18.744Z,786.93
2018-04-06T00:13:22.840Z,786.91
2018-04-06T00:13:27.147Z,786.9
2018-04-06T00:13:31.351Z,786.9
2018-04-06T00:13:35.455Z,786.86
2018-04-06T00:13:39.658Z,786.87
2018-04-06T00:13:43.753Z,786.87
2018-04-06T00:13:47.743Z,786.83
2018-04-06T00:13:51.843Z,786.86
2018-04-06T00:13:55.837Z,786.88
2018-04-06T00:13:59.935Z,786.88
2018-04-06T00:14:04.147Z,786.84
2018-04-06T00:14:08.137Z,786.84
2018-04-06T00:14:12.235Z,786.84
2018-04-06T00:14:16.342Z,786.84
2018-04-06T00:14:20.489Z,786.84
2018-04-06T00:14:24.700Z,786.86
2018-04-06T00:14:28.694Z,786.83
2018-04-06T00:14:32.792Z,786.82
2018-04-06T00:14:36.999Z,786.82
2018-04-06T00:14:41.205Z,786.81
2018-04-06T00:14:45.195Z,786.82
2018-04-06T00:14:49.408Z,786.8
2018-04-06T00:14:53.516Z,786.77
2018-04-06T00:14:57.632Z,786.78
2018-04-06T00:15:01.766Z,786.77
2018-04-06T00:15:06.129Z,786.8
2018-04-06T00:15:10.344Z,786.74
2018-04-06T00:15:14.657Z,786.77
2018-04-06T00:15:18.862Z,786.77
2018-04-06T00:15:23.069Z,786.69
2018-04-06T00:15:27.176Z,786.73
2018-04-06T00:15:31.496Z,786.7
2018-04-06T00:15:35.699Z,786.69
2018-04-06T00:15:39.965Z,786.68
2018-04-06T00:15:44.174Z,786.68
2018-04-06T00:15:48.276Z,786.67
2018-04-06T00:15:52.267Z,786.67
2018-04-06T00:15:56.471Z,786.67
2018-04-06T00:16:00.579Z,786.72
2018-04-06T00:16:04.824Z,786.69
2018-04-06T00:16:08.823Z,786.69
2018-04-06T00:16:13.147Z,786.68
2018-04-06T00:16:17.352Z,786.67
2018-04-06T00:16:21.402Z,786.67
2018-04-06T00:16:25.500Z,786.68
2018-04-06T00:16:29.598Z,786.67
2018-04-06T00:16:33.918Z,786.63
2018-04-06T00:16:37.801Z,786.64
2018-04-06T00:16:41.898Z,786.63
2018-04-06T00:16:46.003Z,786.64
2018-04-06T00:16:50.146Z,786.63
2018-04-06T00:16:54.142Z,786.65
2018-04-06T00:16:58.462Z,786.63
2018-04-06T00:17:02.670Z,786.59
2018-04-06T00:17:06.878Z,786.62
2018-04-06T00:17:11.188Z,786.58
2018-04-06T00:17:15.286Z,786.58
2018-04-06T00:17:19.384Z,786.6
2018-04-06T00:17:23.709Z,786.63
2018-04-06T00:17:27.816Z,786.63
2018-04-06T00:17:32.032Z,786.61
2018-04-06T00:17:36.352Z,786.62
2018-04-06T00:17:40.532Z,786.54
2018-04-06T00:17:44.925Z,786.59
2018-04-06T00:17:49.104Z,786.61
2018-04-06T00:17:53.093Z,786.61
2018-04-06T00:17:57.197Z,786.58
2018-04-06T00:18:01.522Z,786.59
2018-04-06T00:18:05.861Z,786.58
2018-04-06T00:18:09.863Z,786.56
2018-04-06T00:18:14.180Z,786.58
2018-04-06T00:18:18.499Z,786.52
2018-04-06T00:18:22.599Z,786.51
2018-04-06T00:18:26.804Z,786.58
2018-04-06T00:18:31.011Z,786.57
2018-04-06T00:18:35.320Z,786.57
2018-04-06T00:18:39.309Z,786.57
2018-04-06T00:18:43.618Z,786.54
2018-04-06T00:18:47.502Z,786.53
2018-04-06T00:18:51.600Z,786.53
2018-04-06T00:18:55.695Z,786.55
2018-04-06T00:18:59.791Z,786.53
2018-04-06T00:19:03.881Z,786.52
2018-04-06T00:19:07.769Z,786.51
2018-04-06T00:19:11.979Z,786.5
2018-04-06T00:19:16.188Z,786.52
2018-04-06T00:19:20.404Z,786.53
2018-04-06T00:19:24.393Z,786.51
2018-04-06T00:19:28.294Z,786.5
2018-04-06T00:19:32.289Z,786.51
2018-04-06T00:19:36.384Z,786.51
2018-04-06T00:19:40.370Z,786.55
2018-04-06T00:19:44.366Z,786.5
2018-04-06T00:19:48.679Z,786.5
2018-04-06T00:19:52.558Z,786.52
2018-04-06T00:19:56.885Z,786.49
2018-04-06T00:20:01.195Z,786.53
2018-04-06T00:20:05.643Z,786.48
2018-04-06T00:20:09.526Z,786.51
2018-04-06T00:20:13.518Z,786.5
2018-04-06T00:20:17.840Z,786.53
2018-04-06T00:20:22.046Z,786.5
2018-04-06T00:20:26.036Z,786.48
2018-04-06T00:20:30.139Z,786.51
2018-04-06T00:20:34.024Z,786.51
2018-04-06T00:20:38.013Z,786.52
2018-04-06T00:20:42.216Z,786.51
2018-04-06T00:20:46.420Z,786.51
2018-04-06T00:20:50.518Z,786.48
2018-04-06T00:20:54.727Z,786.49
2018-04-06T00:20:58.612Z,786.51
2018-04-06T00:21:02.724Z,786.52
2018-04-06T00:21:06.716Z,786.5
2018-04-06T00:21:10.918Z,786.5
2018-04-06T00:21:15.036Z,786.49
2018-04-06T00:21:19.247Z,786.47
2018-04-06T00:21:23.349Z,786.5
2018-04-06T00:21:27.457Z,786.48
2018-04-06T00:21:31.663Z,786.51
2018-04-06T00:21:35.659Z,786.47
2018-04-06T00:21:39.969Z,786.47
2018-04-06T00:21:43.959Z,786.47
2018-04-06T00:21:47.956Z,786.44
2018-04-06T00:21:51.731Z,786.5
2018-04-06T00:21:55.721Z,786.5
2018-04-06T00:21:59.819Z,786.47
2018-04-06T00:22:04.077Z,786.47
2018-04-06T00:22:08.335Z,786.49
2018-04-06T00:22:12.546Z,786.46
2018-04-06T00:22:16.858Z,786.48
2018-04-06T00:22:21.163Z,786.46
2018-04-06T00:22:25.152Z,786.5
2018-04-06T00:22:29.369Z,786.48
2018-04-06T00:22:33.579Z,786.43
2018-04-06T00:22:37.678Z,786.46
2018-04-06T00:22:41.886Z,786.45
2018-04-06T00:22:46.084Z,786.49
2018-04-06T00:22:50.189Z,786.48
2018-04-06T00:22:54.287Z,786.45
2018-04-06T00:22:58.493Z,786.49
2018-04-06T00:23:02.951Z,786.48
2018-04-06T00:23:07.053Z,786.48
2018-04-06T00:23:11.381Z,786.53
2018-04-06T00:23:15.582Z,786.48
2018-04-06T00:23:19.687Z,786.48
2018-04-06T00:23:23.900Z,786.49
2018-04-06T00:23:27.795Z,786.52
2018-04-06T00:23:31.787Z,786.47
2018-04-06T00:23:35.992Z,786.47
2018-04-06T00:23:40.304Z,786.46
2018-04-06T00:23:44.620Z,786.47
2018-04-06T00:23:48.822Z,786.5
2018-04-06T00:23:52.705Z,786.49
2018-04-06T00:23:56.920Z,786.45
2018-04-06T00:24:00.929Z,786.44
2018-04-06T00:24:05.491Z,786.48
2018-04-06T00:24:09.380Z,786.49
2018-04-06T00:24:13.474Z,786.46
2018-04-06T00:24:17.791Z,786.44
2018-04-06T00:24:21.992Z,786.45
2018-04-06T00:24:26.107Z,786.45
2018-04-06T00:24:30.102Z,786.43
2018-04-06T00:24:34.307Z,786.46
2018-04-06T00:24:38.404Z,786.45
2018-04-06T00:24:42.609Z,786.45
2018-04-06T00:24:46.918Z,786.44
2018-04-06T00:24:50.802Z,786.44
2018-04-06T00:24:55.010Z,786.46
2018-04-06T00:24:59.106Z,786.43
2018-04-06T00:25:03.038Z,786.41
2018-04-06T00:25:07.253Z,786.43
2018-04-06T00:25:11.457Z,786.44
2018-04-06T00:25:15.666Z,786.41
2018-04-06T00:25:19.759Z,786.42
2018-04-06T00:25:23.852Z,786.44
2018-04-06T00:25:27.948Z,786.4
2018-04-06T00:25:32.157Z,786.41
2018-04-06T00:25:36.142Z,786.4
2018-04-06T00:25:40.236Z,786.4
2018-04-06T00:25:44.339Z,786.43
2018-04-06T00:25:48.544Z,786.43
2018-04-06T00:25:52.640Z,786.43
2018-04-06T00:25:56.958Z,786.44
2018-04-06T00:26:01.289Z,786.47
2018-04-06T00:26:05.439Z,786.43
2018-04-06T00:26:09.538Z,786.41
2018-04-06T00:26:13.740Z,786.44
2018-04-06T00:26:17.952Z,786.46
2018-04-06T00:26:21.824Z,786.43
2018-04-06T00:26:25.712Z,786.43
2018-04-06T00:26:29.701Z,786.43
2018-04-06T00:26:33.805Z,786.44
2018-04-06T00:26:38.007Z,786.4
2018-04-06T00:26:41.998Z,786.46
2018-04-06T00:26:46.095Z,786.43
2018-04-06T00:26:50.081Z,786.44
2018-04-06T00:26:54.175Z,786.41
2018-04-06T00:26:58.277Z,786.43
2018-04-06T00:27:02.277Z,786.42
2018-04-06T00:27:06.594Z,786.44
2018-04-06T00:27:10.803Z,786.41
2018-04-06T00:27:14.788Z,786.42
2018-04-06T00:27:18.885Z,786.4
2018-04-06T00:27:23.089Z,786.41
2018-04-06T00:27:27.078Z,786.43
2018-04-06T00:27:31.173Z,786.42
2018-04-06T00:27:35.270Z,786.43
2018-04-06T00:27:39.474Z,786.37
2018-04-06T00:27:43.570Z,786.45
2018-04-06T00:27:47.454Z,786.4
2018-04-06T00:27:51.768Z,786.41
2018-04-06T00:27:55.866Z,786.42
2018-04-06T00:28:00.068Z,786.39
2018-04-06T00:28:04.273Z,786.41
2018-04-06T00:28:08.475Z,786.41
2018-04-06T00:28:12.735Z,786.37
2018-04-06T00:28:16.936Z,786.41
2018-04-06T00:28:21.145Z,786.41
2018-04-06T00:28:25.344Z,786.42
2018-04-06T00:28:29.658Z,786.4
2018-04-06T00:28:33.863Z,786.41
2018-04-06T00:28:38.201Z,786.39
2018-04-06T00:28:42.190Z,786.4
2018-04-06T00:28:46.392Z,786.42
2018-04-06T00:28:50.494Z,786.4
2018-04-06T00:28:54.712Z,786.41
2018-04-06T00:28:58.921Z,786.42
2018-04-06T00:29:02.698Z,786.4
2018-04-06T00:29:06.581Z,786.36
2018-04-06T00:29:10.791Z,786.41
2018-04-06T00:29:14.892Z,786.37
2018-04-06T00:29:19.100Z,786.36
2018-04-06T00:29:23.506Z,786.38
2018-04-06T00:29:27.386Z,786.38
2018-04-06T00:29:31.380Z,786.34
2018-04-06T00:29:35.697Z,786.36
2018-04-06T00:29:39.586Z,786.37
2018-04-06T00:29:43.699Z,786.34
2018-04-06T00:29:47.906Z,786.36
2018-04-06T00:29:52.005Z,786.37
2018-04-06T00:29:55.885Z,786.35
2018-04-06T00:30:00.088Z,786.34
2018-04-06T00:30:04.128Z,786.37
2018-04-06T00:30:08.231Z,786.36
2018-04-06T00:30:12.224Z,786.38
2018-04-06T00:30:16.435Z,786.36
2018-04-06T00:30:20.642Z,786.33
2018-04-06T00:30:24.736Z,786.32
2018-04-06T00:30:28.833Z,786.35
2018-04-06T00:30:32.931Z,786.36
2018-04-06T00:30:37.026Z,786.34
2018-04-06T00:30:41.342Z,786.34
2018-04-06T00:30:45.547Z,786.33
2018-04-06T00:30:49.751Z,786.34
2018-04-06T00:30:53.748Z,786.35
2018-04-06T00:30:57.850Z,786.34
2018-04-06T00:31:01.832Z,786.32
2018-04-06T00:31:05.613Z,786.33
2018-04-06T00:31:09.604Z,786.33
2018-04-06T00:31:13.810Z,786.32
2018-04-06T00:31:18.011Z,786.31
2018-04-06T00:31:21.893Z,786.33
2018-04-06T00:31:26.002Z,786.32
2018-04-06T00:31:29.991Z,786.34
2018-04-06T00:31:34.018Z,786.3
2018-04-06T00:31:38.222Z,786.31
2018-04-06T00:31:42.329Z,786.31
2018-04-06T00:31:46.432Z,786.31
2018-04-06T00:31:50.525Z,786.31
2018-04-06T00:31:54.638Z,786.29
2018-04-06T00:31:58.412Z,786.31
2018-04-06T00:32:02.513Z,786.32
2018-04-06T00:32:06.719Z,786.32
2018-04-06T00:32:11.030Z,786.34
2018-04-06T00:32:15.342Z,786.27
2018-04-06T00:32:19.334Z,786.33
2018-04-06T00:32:23.552Z,786.31
2018-04-06T00:32:27.433Z,786.29
2018-04-06T00:32:31.536Z,786.3
2018-04-06T00:32:35.658Z,786.29
2018-04-06T00:32:39.865Z,786.28
2018-04-06T00:32:43.751Z,786.29
2018-04-06T00:32:47.850Z,786.29
2018-04-06T00:32:51.731Z,786.32
2018-04-06T00:32:55.829Z,786.29
2018-04-06T00:32:59.720Z,786.27
2018-04-06T00:33:04.149Z,786.29
2018-04-06T00:33:08.262Z,786.27
2018-04-06T00:33:12.359Z,786.28
2018-04-06T00:33:16.565Z,786.25
2018-04-06T00:33:20.552Z,786.22
2018-04-06T00:33:24.554Z,786.29
2018-04-06T00:33:28.650Z,786.25
2018-04-06T00:33:32.748Z,786.23
2018-04-06T00:33:37.061Z,786.27
2018-04-06T00:33:41.156Z,786.27
2018-04-06T00:33:45.151Z,786.27
2018-04-06T00:33:49.141Z,786.27
2018-04-06T00:33:53.344Z,786.29
2018-04-06T00:33:57.443Z,786.26
2018-04-06T00:34:01.557Z,786.27
2018-04-06T00:34:05.896Z,786.23
2018-04-06T00:34:10.599Z,786.23
2018-04-06T00:34:14.809Z,786.26
2018-04-06T00:34:18.921Z,786.25
2018-04-06T00:34:23.127Z,786.24
2018-04-06T00:34:27.124Z,786.23
2018-04-06T00:34:31.110Z,786.23
2018-04-06T00:34:35.324Z,786.26
2018-04-06T00:34:39.642Z,786.27
2018-04-06T00:34:43.950Z,786.22
2018-04-06T00:34:48.151Z,786.23
2018-04-06T00:34:52.246Z,786.23
2018-04-06T00:34:56.570Z,786.28
2018-04-06T00:35:00.664Z,786.23
2018-04-06T00:35:04.645Z,786.24
2018-04-06T00:35:08.642Z,786.23
2018-04-06T00:35:12.863Z,786.24
2018-04-06T00:35:16.858Z,786.21
2018-04-06T00:35:20.964Z,786.19
2018-04-06T00:35:25.173Z,786.22
2018-04-06T00:35:29.390Z,786.21
2018-04-06T00:35:33.283Z,786.23
2018-04-06T00:35:37.493Z,786.23
2018-04-06T00:35:41.707Z,786.22
2018-04-06T00:35:45.922Z,786.23
2018-04-06T00:35:50.035Z,786.24
2018-04-06T00:35:54.243Z,786.21
2018-04-06T00:35:58.246Z,786.21
2018-04-06T00:36:02.808Z,786.21
2018-04-06T00:36:06.912Z,786.22
2018-04-06T00:36:10.904Z,786.17
2018-04-06T00:36:14.998Z,786.23
2018-04-06T00:36:19.204Z,786.22
2018-04-06T00:36:23.431Z,786.21
2018-04-06T00:36:27.532Z,786.19
2018-04-06T00:36:31.741Z,786.21
2018-04-06T00:36:35.733Z,786.23
2018-04-06T00:36:39.946Z,786.22
2018-04-06T00:36:44.253Z,786.2
2018-04-06T00:36:48.465Z,786.2
2018-04-06T00:36:52.668Z,786.21
2018-04-06T00:36:56.657Z,786.19
2018-04-06T00:37:00.657Z,786.21
2018-04-06T00:37:04.635Z,786.15
2018-04-06T00:37:08.519Z,786.18
2018-04-06T00:37:12.615Z,786.17
2018-04-06T00:37:16.712Z,786.14
2018-04-06T00:37:20.928Z,786.17
2018-04-06T00:37:25.133Z,786.14
2018-04-06T00:37:29.123Z,786.15
2018-04-06T00:37:33.329Z,786.16
2018-04-06T00:37:37.426Z,786.15
2018-04-06T00:37:41.420Z,786.19
2018-04-06T00:37:45.516Z,786.17
2018-04-06T00:37:49.533Z,786.19
2018-04-06T00:37:53.752Z,786.18
2018-04-06T00:37:57.740Z,786.16
2018-04-06T00:38:01.835Z,786.15
2018-04-06T00:38:05.869Z,786.16
2018-04-06T00:38:09.858Z,786.17
2018-04-06T00:38:14.061Z,786.15
2018-04-06T00:38:18.212Z,786.11
2018-04-06T00:38:22.310Z,786.11
2018-04-06T00:38:26.410Z,786.09
2018-04-06T00:38:30.398Z,786.08
2018-04-06T00:38:34.707Z,786.1
2018-04-06T00:38:38.911Z,786.08
2018-04-06T00:38:43.116Z,786.06
2018-04-06T00:38:47.212Z,786.08
2018-04-06T00:38:51.202Z,786.13
2018-04-06T00:38:55.406Z,786.1
2018-04-06T00:38:59.501Z,786.1
2018-04-06T00:39:03.961Z,786.1
2018-04-06T00:39:08.054Z,786.08
2018-04-06T00:39:12.267Z,786.11
2018-04-06T00:39:16.370Z,786.06
2018-04-06T00:39:20.461Z,786.04
2018-04-06T00:39:24.566Z,786.02
2018-04-06T00:39:28.667Z,786.03
2018-04-06T00:39:32.770Z,786.05
2018-04-06T00:39:36.765Z,786.08
2018-04-06T00:39:40.863Z,786.05
2018-04-06T00:39:44.852Z,786.08
2018-04-06T00:39:49.063Z,786.06
2018-04-06T00:39:53.274Z,786.07
2018-04-06T00:39:57.478Z,786.02
2018-04-06T00:40:01.697Z,786.04
2018-04-06T00:40:05.959Z,786.04
2018-04-06T00:40:09.958Z,786.03
2018-04-06T00:40:14.059Z,786.03
2018-04-06T00:40:18.268Z,786.01
2018-04-06T00:40:22.363Z,786.03
2018-04-06T00:40:26.353Z,786
2018-04-06T00:40:30.454Z,786.02
2018-04-06T00:40:34.555Z,786.01
2018-04-06T00:40:38.548Z,786.01
2018-04-06T00:40:42.648Z,786.01
2018-04-06T00:40:46.528Z,785.99
2018-04-06T00:40:50.520Z,785.98
2018-04-06T00:40:54.619Z,785.98
2018-04-06T00:40:58.506Z,785.96
2018-04-06T00:41:02.702Z,785.97
2018-04-06T00:41:06.905Z,785.93
2018-04-06T00:41:10.896Z,785.92
2018-04-06T00:41:14.893Z,785.96
2018-04-06T00:41:18.886Z,785.95
2018-04-06T00:41:23.001Z,785.98
2018-04-06T00:41:27.100Z,785.96
2018-04-06T00:41:31.198Z,785.93
2018-04-06T00:41:35.295Z,785.94
2018-04-06T00:41:39.604Z,785.91
2018-04-06T00:41:43.710Z,785.91
2018-04-06T00:41:47.915Z,785.92
2018-04-06T00:41:52.134Z,785.91
2018-04-06T00:41:56.628Z,785.88
2018-04-06T00:42:00.939Z,785.85
2018-04-06T00:42:04.770Z,785.86
2018-04-06T00:42:08.876Z,785.85
2018-04-06T00:42:13.081Z,785.88
2018-04-06T00:42:16.860Z,785.84
2018-04-06T00:42:21.077Z,785.84
2018-04-06T00:42:25.183Z,785.81
2018-04-06T00:42:29.280Z,785.81
2018-04-06T00:42:33.164Z,785.86
2018-04-06T00:42:37.149Z,785.88
2018-04-06T00:42:41.290Z,785.83
2018-04-06T00:42:45.175Z,785.82
2018-04-06T00:42:49.383Z,785.83
2018-04-06T00:42:53.586Z,785.85
2018-04-06T00:42:57.577Z,785.86
2018-04-06T00:43:01.684Z,785.83
2018-04-06T00:43:06.006Z,785.83
2018-04-06T00:43:10.099Z,785.81
2018-04-06T00:43:13.999Z,785.8
2018-04-06T00:43:17.992Z,785.8
2018-04-06T00:43:22.104Z,785.8
2018-04-06T00:43:26.308Z,785.82
2018-04-06T00:43:30.411Z,785.76
2018-04-06T00:43:34.506Z,785.77
2018-04-06T00:43:38.494Z,785.78
2018-04-06T00:43:42.587Z,785.78
2018-04-06T00:43:46.802Z,785.76
2018-04-06T00:43:50.798Z,785.76
2018-04-06T00:43:54.799Z,785.76
2018-04-06T00:43:58.793Z,785.72
2018-04-06T00:44:03.007Z,785.73
2018-04-06T00:44:07.212Z,785.73
2018-04-06T00:44:11.206Z,785.72
2018-04-06T00:44:15.415Z,785.7
2018-04-06T00:44:19.741Z,785.75
2018-04-06T00:44:24.051Z,785.7
2018-04-06T00:44:28.237Z,785.73
2018-04-06T00:44:32.444Z,785.7
2018-04-06T00:44:36.435Z,785.68
2018-04-06T00:44:40.529Z,785.69
2018-04-06T00:44:44.739Z,785.67
2018-04-06T00:44:48.845Z,785.69
2018-04-06T00:44:52.728Z,785.67
2018-04-06T00:44:56.828Z,785.66
2018-04-06T00:45:00.928Z,785.62
2018-04-06T00:45:04.706Z,785.57
2018-04-06T00:45:08.920Z,785.6
2018-04-06T00:45:13.031Z,785.62
2018-04-06T00:45:17.023Z,785.63
2018-04-06T00:45:21.125Z,785.62
2018-04-06T00:45:25.223Z,785.59
2018-04-06T00:45:29.320Z,785.62
2018-04-06T00:45:33.530Z,785.59
2018-04-06T00:45:37.737Z,785.55
2018-04-06T00:45:41.835Z,785.55
2018-04-06T00:45:45.822Z,785.55
2018-04-06T00:45:50.143Z,785.52
2018-04-06T00:45:54.138Z,785.54
2018-04-06T00:45:58.340Z,785.53
2018-04-06T00:46:02.688Z,785.54
2018-04-06T00:46:06.687Z,785.52
2018-04-06T00:46:10.895Z,785.52
2018-04-06T00:46:14.780Z,785.48
2018-04-06T00:46:19.015Z,785.49
2018-04-06T00:46:23.111Z,785.46
2018-04-06T00:46:27.437Z,785.51
2018-04-06T00:46:31.548Z,785.5
2018-04-06T00:46:35.428Z,785.46
2018-04-06T00:46:39.524Z,785.45
2018-04-06T00:46:43.722Z,785.46
2018-04-06T00:46:48.032Z,785.42
2018-04-06T00:46:51.910Z,785.45
2018-04-06T00:46:56.005Z,785.43
2018-04-06T00:47:00.093Z,785.42
2018-04-06T00:47:04.439Z,785.46
2018-04-06T00:47:08.652Z,785.38
2018-04-06T00:47:12.863Z,785.37
2018-04-06T00:47:16.964Z,785.41
2018-04-06T00:47:21.173Z,785.39
2018-04-06T00:47:25.053Z,785.41
2018-04-06T00:47:29.218Z,785.41
2018-04-06T00:47:33.882Z,785.39
2018-04-06T00:47:38.214Z,785.39
2018-04-06T00:47:41.988Z,785.38
2018-04-06T00:47:46.196Z,785.37
2018-04-06T00:47:50.404Z,785.35
2018-04-06T00:47:54.504Z,785.37
2018-04-06T00:47:58.388Z,785.36
2018-04-06T00:48:02.865Z,785.38
2018-04-06T00:48:06.973Z,785.33
2018-04-06T00:48:11.180Z,785.33
2018-04-06T00:48:15.503Z,785.33
2018-04-06T00:48:19.606Z,785.35
2018-04-06T00:48:23.815Z,785.35
2018-04-06T00:48:28.029Z,785.3
2018-04-06T00:48:32.019Z,785.33
2018-04-06T00:48:36.116Z,785.29
2018-04-06T00:48:40.211Z,785.29
2018-04-06T00:48:44.307Z,785.29
2018-04-06T00:48:48.400Z,785.28
2018-04-06T00:48:52.498Z,785.27
2018-04-06T00:48:56.706Z,785.29
2018-04-06T00:49:00.806Z,785.25
2018-04-06T00:49:04.904Z,785.23
2018-04-06T00:49:08.790Z,785.25
2018-04-06T00:49:12.996Z,785.22
2018-04-06T00:49:17.307Z,785.19
2018-04-06T00:49:21.406Z,785.24
2018-04-06T00:49:25.507Z,785.24
2018-04-06T00:49:29.605Z,785.22
2018-04-06T00:49:33.922Z,785.2
2018-04-06T00:49:38.241Z,785.21
2018-04-06T00:49:42.333Z,785.21
2018-04-06T00:49:46.320Z,785.19
2018-04-06T00:49:50.415Z,785.18
2018-04-06T00:49:54.400Z,785.21
2018-04-06T00:49:58.607Z,785.19
2018-04-06T00:50:02.867Z,785.15
2018-04-06T00:50:06.969Z,785.15
2018-04-06T00:50:10.958Z,785.2
2018-04-06T00:50:15.285Z,785.18
2018-04-06T00:50:19.278Z,785.11
2018-04-06T00:50:23.054Z,785.11
2018-04-06T00:50:27.198Z,785.11
2018-04-06T00:50:31.525Z,785.14
2018-04-06T00:50:35.513Z,785.1
2018-04-06T00:50:39.618Z,785.12
2018-04-06T00:50:43.826Z,785.08
2018-04-06T00:50:48.139Z,785.06
2018-04-06T00:50:52.235Z,785.05
2018-04-06T00:50:56.227Z,785.08
2018-04-06T00:51:00.430Z,785.07
2018-04-06T00:51:04.362Z,785.05
2018-04-06T00:51:08.474Z,785.05
2018-04-06T00:51:12.577Z,785.05
2018-04-06T00:51:16.562Z,785.05
2018-04-06T00:51:20.445Z,785.04
2018-04-06T00:51:24.666Z,785.06
2018-04-06T00:51:28.764Z,785.07
2018-04-06T00:51:32.876Z,785.08
2018-04-06T00:51:37.196Z,785.07
2018-04-06T00:51:41.294Z,785.06